sensor_id;sensor_type;location;lat;lon;timestamp;P1;durP1;ratioP1;P2;durP2;ratioP2
71172;SDS011;58875;51.996;4.504;2024-01-10T00:01:52;4.33;;;4.26;;
71172;SDS011;58875;51.996;4.504;2024-01-10T00:04:18;4.23;;;4.18;;
71172;SDS011;58875;51.996;4.504;2024-01-10T00:06:45;4.32;;;4.27;;
71172;SDS011;58875;51.996;4.504;2024-01-10T00:09:10;4.41;;;4.37;;
71172;SDS011;58875;51.996;4.504;2024-01-10T00:11:39;4.18;;;4.17;;
71172;SDS011;58875;51.996;4.504;2024-01-10T00:14:04;4.32;;;4.30;;
71172;SDS011;58875;51.996;4.504;2024-01-10T00:16:30;4.44;;;4.39;;
71172;SDS011;58875;51.996;4.504;2024-01-10T00:18:55;4.41;;;4.39;;
71172;SDS011;58875;51.996;4.504;2024-01-10T00:21:20;4.32;;;4.28;;
71172;SDS011;58875;51.996;4.504;2024-01-10T00:23:48;4.57;;;4.51;;
71172;SDS011;58875;51.996;4.504;2024-01-10T00:26:14;4.80;;;4.74;;
71172;SDS011;58875;51.996;4.504;2024-01-10T00:28:40;4.79;;;4.71;;
71172;SDS011;58875;51.996;4.504;2024-01-10T00:31:08;5.00;;;4.88;;
71172;SDS011;58875;51.996;4.504;2024-01-10T00:33:34;4.89;;;4.70;;
71172;SDS011;58875;51.996;4.504;2024-01-10T00:35:59;5.02;;;4.92;;
71172;SDS011;58875;51.996;4.504;2024-01-10T00:38:25;4.86;;;4.79;;
71172;SDS011;58875;51.996;4.504;2024-01-10T00:40:50;5.14;;;5.01;;
71172;SDS011;58875;51.996;4.504;2024-01-10T00:43:16;5.07;;;4.96;;
71172;SDS011;58875;51.996;4.504;2024-01-10T00:45:41;4.91;;;4.89;;
71172;SDS011;58875;51.996;4.504;2024-01-10T00:48:07;5.39;;;5.33;;
71172;SDS011;58875;51.996;4.504;2024-01-10T00:50:35;5.27;;;5.13;;
71172;SDS011;58875;51.996;4.504;2024-01-10T00:53:00;5.63;;;5.50;;
71172;SDS011;58875;51.996;4.504;2024-01-10T00:55:25;5.20;;;5.14;;
71172;SDS011;58875;51.996;4.504;2024-01-10T00:57:51;5.12;;;5.08;;
71172;SDS011;58875;51.996;4.504;2024-01-10T01:00:16;5.24;;;5.19;;
71172;SDS011;58875;51.996;4.504;2024-01-10T01:02:42;5.40;;;5.28;;
71172;SDS011;58875;51.996;4.504;2024-01-10T01:05:07;5.26;;;5.19;;
71172;SDS011;58875;51.996;4.504;2024-01-10T01:07:33;5.25;;;5.19;;
71172;SDS011;58875;51.996;4.504;2024-01-10T01:09:59;5.34;;;5.28;;
71172;SDS011;58875;51.996;4.504;2024-01-10T01:12:24;5.54;;;5.48;;
71172;SDS011;58875;51.996;4.504;2024-01-10T01:14:50;5.80;;;5.72;;
71172;SDS011;58875;51.996;4.504;2024-01-10T01:17:15;5.44;;;5.37;;
71172;SDS011;58875;51.996;4.504;2024-01-10T01:19:41;5.55;;;5.50;;
71172;SDS011;58875;51.996;4.504;2024-01-10T01:22:06;5.87;;;5.77;;
71172;SDS011;58875;51.996;4.504;2024-01-10T01:24:32;5.70;;;5.63;;
71172;SDS011;58875;51.996;4.504;2024-01-10T01:26:57;5.37;;;5.33;;
71172;SDS011;58875;51.996;4.504;2024-01-10T01:29:23;5.87;;;5.79;;
71172;SDS011;58875;51.996;4.504;2024-01-10T01:31:49;5.86;;;5.80;;
71172;SDS011;58875;51.996;4.504;2024-01-10T01:34:15;5.65;;;5.61;;
71172;SDS011;58875;51.996;4.504;2024-01-10T01:36:40;5.94;;;5.83;;
71172;SDS011;58875;51.996;4.504;2024-01-10T01:39:05;5.67;;;5.59;;
71172;SDS011;58875;51.996;4.504;2024-01-10T01:41:31;5.18;;;5.10;;
71172;SDS011;58875;51.996;4.504;2024-01-10T01:43:56;5.41;;;5.35;;
71172;SDS011;58875;51.996;4.504;2024-01-10T01:46:22;5.61;;;5.58;;
71172;SDS011;58875;51.996;4.504;2024-01-10T01:48:48;5.52;;;5.47;;
71172;SDS011;58875;51.996;4.504;2024-01-10T01:51:14;5.35;;;5.31;;
71172;SDS011;58875;51.996;4.504;2024-01-10T01:53:40;5.93;;;5.88;;
71172;SDS011;58875;51.996;4.504;2024-01-10T01:56:07;5.61;;;5.60;;
71172;SDS011;58875;51.996;4.504;2024-01-10T01:58:34;5.59;;;5.58;;
71172;SDS011;58875;51.996;4.504;2024-01-10T02:01:00;5.81;;;5.79;;
71172;SDS011;58875;51.996;4.504;2024-01-10T02:03:26;5.46;;;5.43;;
71172;SDS011;58875;51.996;4.504;2024-01-10T02:05:52;5.94;;;5.81;;
71172;SDS011;58875;51.996;4.504;2024-01-10T02:08:18;5.71;;;5.62;;
71172;SDS011;58875;51.996;4.504;2024-01-10T02:10:44;5.69;;;5.64;;
71172;SDS011;58875;51.996;4.504;2024-01-10T02:13:09;5.42;;;5.40;;
71172;SDS011;58875;51.996;4.504;2024-01-10T02:15:37;5.49;;;5.44;;
71172;SDS011;58875;51.996;4.504;2024-01-10T02:18:03;5.52;;;5.48;;
71172;SDS011;58875;51.996;4.504;2024-01-10T02:20:30;5.78;;;5.74;;
71172;SDS011;58875;51.996;4.504;2024-01-10T02:22:56;5.80;;;5.75;;
71172;SDS011;58875;51.996;4.504;2024-01-10T02:25:22;6.03;;;5.90;;
71172;SDS011;58875;51.996;4.504;2024-01-10T02:27:47;5.79;;;5.73;;
71172;SDS011;58875;51.996;4.504;2024-01-10T02:30:13;5.84;;;5.78;;
71172;SDS011;58875;51.996;4.504;2024-01-10T02:32:38;5.84;;;5.78;;
71172;SDS011;58875;51.996;4.504;2024-01-10T02:35:04;6.03;;;5.96;;
71172;SDS011;58875;51.996;4.504;2024-01-10T02:37:30;5.84;;;5.79;;
71172;SDS011;58875;51.996;4.504;2024-01-10T02:39:55;5.88;;;5.78;;
71172;SDS011;58875;51.996;4.504;2024-01-10T02:42:20;6.25;;;6.12;;
71172;SDS011;58875;51.996;4.504;2024-01-10T02:44:46;5.94;;;5.92;;
71172;SDS011;58875;51.996;4.504;2024-01-10T02:47:11;5.73;;;5.73;;
71172;SDS011;58875;51.996;4.504;2024-01-10T02:49:37;6.08;;;6.08;;
71172;SDS011;58875;51.996;4.504;2024-01-10T02:52:03;6.22;;;6.19;;
71172;SDS011;58875;51.996;4.504;2024-01-10T02:54:29;6.52;;;6.50;;
71172;SDS011;58875;51.996;4.504;2024-01-10T02:56:57;6.23;;;6.20;;
71172;SDS011;58875;51.996;4.504;2024-01-10T02:59:22;6.23;;;6.20;;
71172;SDS011;58875;51.996;4.504;2024-01-10T03:01:48;6.35;;;6.33;;
71172;SDS011;58875;51.996;4.504;2024-01-10T03:04:13;6.41;;;6.38;;
71172;SDS011;58875;51.996;4.504;2024-01-10T03:06:39;6.70;;;6.68;;
71172;SDS011;58875;51.996;4.504;2024-01-10T03:09:04;6.61;;;6.57;;
71172;SDS011;58875;51.996;4.504;2024-01-10T03:11:30;6.72;;;6.66;;
71172;SDS011;58875;51.996;4.504;2024-01-10T03:14:01;6.95;;;6.94;;
71172;SDS011;58875;51.996;4.504;2024-01-10T03:16:27;7.06;;;7.06;;
71172;SDS011;58875;51.996;4.504;2024-01-10T03:18:52;7.00;;;6.97;;
71172;SDS011;58875;51.996;4.504;2024-01-10T03:21:17;7.78;;;7.70;;
71172;SDS011;58875;51.996;4.504;2024-01-10T03:23:49;7.81;;;7.74;;
71172;SDS011;58875;51.996;4.504;2024-01-10T03:26:15;7.22;;;7.15;;
71172;SDS011;58875;51.996;4.504;2024-01-10T03:28:40;7.54;;;7.47;;
71172;SDS011;58875;51.996;4.504;2024-01-10T03:31:06;7.33;;;7.33;;
71172;SDS011;58875;51.996;4.504;2024-01-10T03:33:32;7.18;;;7.14;;
71172;SDS011;58875;51.996;4.504;2024-01-10T03:35:57;8.21;;;8.10;;
71172;SDS011;58875;51.996;4.504;2024-01-10T03:38:23;7.93;;;7.80;;
71172;SDS011;58875;51.996;4.504;2024-01-10T03:40:48;8.23;;;8.11;;
71172;SDS011;58875;51.996;4.504;2024-01-10T03:43:13;8.17;;;8.06;;
71172;SDS011;58875;51.996;4.504;2024-01-10T03:45:39;8.11;;;7.99;;
71172;SDS011;58875;51.996;4.504;2024-01-10T03:48:05;7.89;;;7.83;;
71172;SDS011;58875;51.996;4.504;2024-01-10T03:50:31;8.01;;;7.98;;
71172;SDS011;58875;51.996;4.504;2024-01-10T03:52:56;7.88;;;7.84;;
71172;SDS011;58875;51.996;4.504;2024-01-10T03:55:21;8.43;;;8.40;;
71172;SDS011;58875;51.996;4.504;2024-01-10T03:57:47;8.11;;;8.09;;
71172;SDS011;58875;51.996;4.504;2024-01-10T04:00:12;8.11;;;8.06;;
71172;SDS011;58875;51.996;4.504;2024-01-10T04:02:38;8.52;;;8.41;;
71172;SDS011;58875;51.996;4.504;2024-01-10T04:05:07;8.73;;;8.61;;
71172;SDS011;58875;51.996;4.504;2024-01-10T04:07:33;8.98;;;8.87;;
71172;SDS011;58875;51.996;4.504;2024-01-10T04:09:59;8.97;;;8.87;;
71172;SDS011;58875;51.996;4.504;2024-01-10T04:12:24;8.90;;;8.82;;
71172;SDS011;58875;51.996;4.504;2024-01-10T04:14:50;9.00;;;8.88;;
71172;SDS011;58875;51.996;4.504;2024-01-10T04:17:15;8.65;;;8.59;;
71172;SDS011;58875;51.996;4.504;2024-01-10T04:19:40;9.08;;;9.04;;
71172;SDS011;58875;51.996;4.504;2024-01-10T04:22:06;9.14;;;9.11;;
71172;SDS011;58875;51.996;4.504;2024-01-10T04:24:31;9.40;;;9.35;;
71172;SDS011;58875;51.996;4.504;2024-01-10T04:26:57;9.57;;;9.49;;
71172;SDS011;58875;51.996;4.504;2024-01-10T04:29:22;9.09;;;9.01;;
71172;SDS011;58875;51.996;4.504;2024-01-10T04:31:47;9.25;;;9.25;;
71172;SDS011;58875;51.996;4.504;2024-01-10T04:34:13;9.52;;;9.46;;
71172;SDS011;58875;51.996;4.504;2024-01-10T04:36:39;9.14;;;9.07;;
71172;SDS011;58875;51.996;4.504;2024-01-10T04:39:04;9.50;;;9.46;;
71172;SDS011;58875;51.996;4.504;2024-01-10T04:41:30;9.21;;;9.13;;
71172;SDS011;58875;51.996;4.504;2024-01-10T04:43:55;9.24;;;9.17;;
71172;SDS011;58875;51.996;4.504;2024-01-10T04:46:21;9.49;;;9.41;;
71172;SDS011;58875;51.996;4.504;2024-01-10T04:48:46;9.47;;;9.44;;
71172;SDS011;58875;51.996;4.504;2024-01-10T04:51:11;9.44;;;9.43;;
71172;SDS011;58875;51.996;4.504;2024-01-10T04:53:37;9.42;;;9.39;;
71172;SDS011;58875;51.996;4.504;2024-01-10T04:56:03;9.58;;;9.54;;
71172;SDS011;58875;51.996;4.504;2024-01-10T04:58:28;9.90;;;9.85;;
71172;SDS011;58875;51.996;4.504;2024-01-10T05:00:55;9.88;;;9.81;;
71172;SDS011;58875;51.996;4.504;2024-01-10T05:03:20;9.91;;;9.84;;
71172;SDS011;58875;51.996;4.504;2024-01-10T05:05:45;9.46;;;9.38;;
71172;SDS011;58875;51.996;4.504;2024-01-10T05:08:11;9.42;;;9.31;;
71172;SDS011;58875;51.996;4.504;2024-01-10T05:10:36;9.89;;;9.75;;
71172;SDS011;58875;51.996;4.504;2024-01-10T05:13:02;9.34;;;9.27;;
71172;SDS011;58875;51.996;4.504;2024-01-10T05:15:27;9.71;;;9.64;;
71172;SDS011;58875;51.996;4.504;2024-01-10T05:17:53;9.17;;;9.13;;
71172;SDS011;58875;51.996;4.504;2024-01-10T05:20:18;9.41;;;9.38;;
71172;SDS011;58875;51.996;4.504;2024-01-10T05:22:44;9.67;;;9.66;;
71172;SDS011;58875;51.996;4.504;2024-01-10T05:25:09;9.47;;;9.45;;
71172;SDS011;58875;51.996;4.504;2024-01-10T05:27:35;9.21;;;9.21;;
71172;SDS011;58875;51.996;4.504;2024-01-10T05:30:00;9.82;;;9.75;;
71172;SDS011;58875;51.996;4.504;2024-01-10T05:32:26;9.66;;;9.61;;
71172;SDS011;58875;51.996;4.504;2024-01-10T05:34:52;9.85;;;9.74;;
71172;SDS011;58875;51.996;4.504;2024-01-10T05:37:17;9.66;;;9.62;;
71172;SDS011;58875;51.996;4.504;2024-01-10T05:39:43;9.93;;;9.83;;
71172;SDS011;58875;51.996;4.504;2024-01-10T05:42:08;9.41;;;9.32;;
71172;SDS011;58875;51.996;4.504;2024-01-10T05:44:34;9.68;;;9.65;;
71172;SDS011;58875;51.996;4.504;2024-01-10T05:46:59;9.58;;;9.46;;
71172;SDS011;58875;51.996;4.504;2024-01-10T05:49:25;9.53;;;9.36;;
71172;SDS011;58875;51.996;4.504;2024-01-10T05:51:51;9.54;;;9.46;;
71172;SDS011;58875;51.996;4.504;2024-01-10T05:54:20;8.99;;;8.96;;
71172;SDS011;58875;51.996;4.504;2024-01-10T05:56:45;9.34;;;9.24;;
71172;SDS011;58875;51.996;4.504;2024-01-10T05:59:14;10.11;;;10.02;;
71172;SDS011;58875;51.996;4.504;2024-01-10T06:01:42;9.16;;;9.06;;
71172;SDS011;58875;51.996;4.504;2024-01-10T06:04:07;9.63;;;9.54;;
71172;SDS011;58875;51.996;4.504;2024-01-10T06:06:32;9.71;;;9.56;;
71172;SDS011;58875;51.996;4.504;2024-01-10T06:08:58;9.34;;;9.28;;
71172;SDS011;58875;51.996;4.504;2024-01-10T06:11:23;8.79;;;8.70;;
71172;SDS011;58875;51.996;4.504;2024-01-10T06:13:49;9.19;;;9.14;;
71172;SDS011;58875;51.996;4.504;2024-01-10T06:16:14;9.34;;;9.26;;
71172;SDS011;58875;51.996;4.504;2024-01-10T06:18:40;9.91;;;9.84;;
71172;SDS011;58875;51.996;4.504;2024-01-10T06:21:05;9.33;;;9.24;;
71172;SDS011;58875;51.996;4.504;2024-01-10T06:23:31;9.56;;;9.50;;
71172;SDS011;58875;51.996;4.504;2024-01-10T06:25:56;9.98;;;9.85;;
71172;SDS011;58875;51.996;4.504;2024-01-10T06:28:22;9.04;;;8.92;;
71172;SDS011;58875;51.996;4.504;2024-01-10T06:30:48;10.27;;;10.09;;
71172;SDS011;58875;51.996;4.504;2024-01-10T06:33:14;9.77;;;9.73;;
71172;SDS011;58875;51.996;4.504;2024-01-10T06:35:41;9.77;;;9.73;;
71172;SDS011;58875;51.996;4.504;2024-01-10T06:38:08;9.96;;;9.91;;
71172;SDS011;58875;51.996;4.504;2024-01-10T06:40:34;9.95;;;9.87;;
71172;SDS011;58875;51.996;4.504;2024-01-10T06:43:00;9.68;;;9.62;;
71172;SDS011;58875;51.996;4.504;2024-01-10T06:45:26;9.55;;;9.54;;
71172;SDS011;58875;51.996;4.504;2024-01-10T06:47:51;9.70;;;9.65;;
71172;SDS011;58875;51.996;4.504;2024-01-10T06:50:17;10.01;;;9.89;;
71172;SDS011;58875;51.996;4.504;2024-01-10T06:52:46;9.54;;;9.46;;
71172;SDS011;58875;51.996;4.504;2024-01-10T06:55:12;9.55;;;9.51;;
71172;SDS011;58875;51.996;4.504;2024-01-10T06:57:38;9.89;;;9.82;;
71172;SDS011;58875;51.996;4.504;2024-01-10T07:00:05;10.34;;;10.28;;
71172;SDS011;58875;51.996;4.504;2024-01-10T07:02:36;9.94;;;9.88;;
71172;SDS011;58875;51.996;4.504;2024-01-10T07:05:01;10.08;;;10.06;;
71172;SDS011;58875;51.996;4.504;2024-01-10T07:07:30;10.41;;;10.38;;
71172;SDS011;58875;51.996;4.504;2024-01-10T07:09:55;10.34;;;10.29;;
71172;SDS011;58875;51.996;4.504;2024-01-10T07:12:25;10.29;;;10.20;;
71172;SDS011;58875;51.996;4.504;2024-01-10T07:14:51;10.37;;;10.27;;
71172;SDS011;58875;51.996;4.504;2024-01-10T07:17:19;10.35;;;10.29;;
71172;SDS011;58875;51.996;4.504;2024-01-10T07:19:48;10.56;;;10.46;;
71172;SDS011;58875;51.996;4.504;2024-01-10T07:22:13;10.73;;;10.60;;
71172;SDS011;58875;51.996;4.504;2024-01-10T07:24:39;10.51;;;10.40;;
71172;SDS011;58875;51.996;4.504;2024-01-10T07:27:05;9.90;;;9.78;;
71172;SDS011;58875;51.996;4.504;2024-01-10T07:29:37;9.57;;;9.53;;
71172;SDS011;58875;51.996;4.504;2024-01-10T07:32:03;9.31;;;9.25;;
71172;SDS011;58875;51.996;4.504;2024-01-10T07:34:28;9.75;;;9.63;;
71172;SDS011;58875;51.996;4.504;2024-01-10T07:36:54;9.49;;;9.34;;
71172;SDS011;58875;51.996;4.504;2024-01-10T07:39:20;9.29;;;9.17;;
71172;SDS011;58875;51.996;4.504;2024-01-10T07:41:46;9.22;;;9.14;;
71172;SDS011;58875;51.996;4.504;2024-01-10T07:44:15;8.99;;;8.90;;
71172;SDS011;58875;51.996;4.504;2024-01-10T07:46:40;9.19;;;9.08;;
71172;SDS011;58875;51.996;4.504;2024-01-10T07:49:05;8.53;;;8.41;;
71172;SDS011;58875;51.996;4.504;2024-01-10T07:51:31;8.95;;;8.86;;
71172;SDS011;58875;51.996;4.504;2024-01-10T07:53:57;8.92;;;8.82;;
71172;SDS011;58875;51.996;4.504;2024-01-10T07:56:26;8.91;;;8.78;;
71172;SDS011;58875;51.996;4.504;2024-01-10T07:58:51;8.84;;;8.76;;
71172;SDS011;58875;51.996;4.504;2024-01-10T08:01:17;8.89;;;8.74;;
71172;SDS011;58875;51.996;4.504;2024-01-10T08:03:43;9.15;;;9.02;;
71172;SDS011;58875;51.996;4.504;2024-01-10T08:06:08;8.89;;;8.79;;
71172;SDS011;58875;51.996;4.504;2024-01-10T08:08:35;8.83;;;8.77;;
71172;SDS011;58875;51.996;4.504;2024-01-10T08:11:01;8.82;;;8.73;;
71172;SDS011;58875;51.996;4.504;2024-01-10T08:13:27;8.51;;;8.41;;
71172;SDS011;58875;51.996;4.504;2024-01-10T08:15:53;8.23;;;8.14;;
71172;SDS011;58875;51.996;4.504;2024-01-10T08:18:22;8.69;;;8.60;;
71172;SDS011;58875;51.996;4.504;2024-01-10T08:20:48;8.86;;;8.74;;
71172;SDS011;58875;51.996;4.504;2024-01-10T08:23:13;8.63;;;8.50;;
71172;SDS011;58875;51.996;4.504;2024-01-10T08:25:39;8.18;;;8.14;;
71172;SDS011;58875;51.996;4.504;2024-01-10T08:28:05;8.33;;;8.28;;
71172;SDS011;58875;51.996;4.504;2024-01-10T08:30:31;8.44;;;8.31;;
71172;SDS011;58875;51.996;4.504;2024-01-10T08:32:57;8.65;;;8.52;;
71172;SDS011;58875;51.996;4.504;2024-01-10T08:35:25;8.18;;;8.06;;
71172;SDS011;58875;51.996;4.504;2024-01-10T08:37:51;8.26;;;8.16;;
71172;SDS011;58875;51.996;4.504;2024-01-10T08:40:16;8.35;;;8.26;;
71172;SDS011;58875;51.996;4.504;2024-01-10T08:42:42;8.26;;;8.19;;
71172;SDS011;58875;51.996;4.504;2024-01-10T08:45:08;7.98;;;7.92;;
71172;SDS011;58875;51.996;4.504;2024-01-10T08:47:37;8.28;;;8.17;;
71172;SDS011;58875;51.996;4.504;2024-01-10T08:50:03;7.98;;;7.90;;
71172;SDS011;58875;51.996;4.504;2024-01-10T08:52:34;8.14;;;8.03;;
71172;SDS011;58875;51.996;4.504;2024-01-10T08:54:59;8.28;;;8.16;;
71172;SDS011;58875;51.996;4.504;2024-01-10T08:57:25;8.00;;;7.93;;
71172;SDS011;58875;51.996;4.504;2024-01-10T08:59:52;8.04;;;7.94;;
71172;SDS011;58875;51.996;4.504;2024-01-10T09:02:18;8.10;;;8.04;;
71172;SDS011;58875;51.996;4.504;2024-01-10T09:04:43;8.09;;;7.97;;
71172;SDS011;58875;51.996;4.504;2024-01-10T09:07:09;7.85;;;7.70;;
71172;SDS011;58875;51.996;4.504;2024-01-10T09:09:34;7.95;;;7.83;;
71172;SDS011;58875;51.996;4.504;2024-01-10T09:12:00;7.89;;;7.81;;
71172;SDS011;58875;51.996;4.504;2024-01-10T09:14:25;8.49;;;8.38;;
71172;SDS011;58875;51.996;4.504;2024-01-10T09:16:51;8.49;;;8.35;;
71172;SDS011;58875;51.996;4.504;2024-01-10T09:19:17;8.40;;;8.29;;
71172;SDS011;58875;51.996;4.504;2024-01-10T09:21:42;8.25;;;8.12;;
71172;SDS011;58875;51.996;4.504;2024-01-10T09:24:08;8.47;;;8.24;;
71172;SDS011;58875;51.996;4.504;2024-01-10T09:26:36;8.09;;;7.93;;
71172;SDS011;58875;51.996;4.504;2024-01-10T09:29:01;8.51;;;8.33;;
71172;SDS011;58875;51.996;4.504;2024-01-10T09:31:27;8.15;;;7.94;;
71172;SDS011;58875;51.996;4.504;2024-01-10T09:33:52;8.73;;;8.51;;
71172;SDS011;58875;51.996;4.504;2024-01-10T09:36:18;8.30;;;8.14;;
71172;SDS011;58875;51.996;4.504;2024-01-10T09:38:43;8.43;;;8.29;;
71172;SDS011;58875;51.996;4.504;2024-01-10T09:41:09;8.25;;;8.19;;
71172;SDS011;58875;51.996;4.504;2024-01-10T09:43:37;8.75;;;8.64;;
71172;SDS011;58875;51.996;4.504;2024-01-10T09:46:02;8.48;;;8.35;;
71172;SDS011;58875;51.996;4.504;2024-01-10T09:48:33;8.65;;;8.48;;
71172;SDS011;58875;51.996;4.504;2024-01-10T09:50:58;8.69;;;8.53;;
71172;SDS011;58875;51.996;4.504;2024-01-10T09:53:25;8.20;;;8.11;;
71172;SDS011;58875;51.996;4.504;2024-01-10T09:55:55;8.34;;;8.30;;
71172;SDS011;58875;51.996;4.504;2024-01-10T09:58:27;8.42;;;8.33;;
71172;SDS011;58875;51.996;4.504;2024-01-10T10:00:53;8.42;;;8.33;;
71172;SDS011;58875;51.996;4.504;2024-01-10T10:03:19;8.07;;;8.03;;
71172;SDS011;58875;51.996;4.504;2024-01-10T10:05:46;8.70;;;8.59;;
71172;SDS011;58875;51.996;4.504;2024-01-10T10:08:12;8.71;;;8.54;;
71172;SDS011;58875;51.996;4.504;2024-01-10T10:10:39;8.78;;;8.54;;
71172;SDS011;58875;51.996;4.504;2024-01-10T10:13:09;8.82;;;8.65;;
71172;SDS011;58875;51.996;4.504;2024-01-10T10:15:37;8.71;;;8.62;;
71172;SDS011;58875;51.996;4.504;2024-01-10T10:18:03;8.54;;;8.46;;
71172;SDS011;58875;51.996;4.504;2024-01-10T10:20:30;8.95;;;8.74;;
71172;SDS011;58875;51.996;4.504;2024-01-10T10:23:03;8.64;;;8.54;;
71172;SDS011;58875;51.996;4.504;2024-01-10T10:25:29;8.48;;;8.38;;
71172;SDS011;58875;51.996;4.504;2024-01-10T10:27:57;8.66;;;8.47;;
71172;SDS011;58875;51.996;4.504;2024-01-10T10:30:23;8.98;;;8.80;;
71172;SDS011;58875;51.996;4.504;2024-01-10T10:32:49;8.48;;;8.36;;
71172;SDS011;58875;51.996;4.504;2024-01-10T10:35:15;8.37;;;8.31;;
71172;SDS011;58875;51.996;4.504;2024-01-10T10:37:41;8.40;;;8.31;;
71172;SDS011;58875;51.996;4.504;2024-01-10T10:40:06;8.35;;;8.27;;
71172;SDS011;58875;51.996;4.504;2024-01-10T10:42:35;8.60;;;8.53;;
71172;SDS011;58875;51.996;4.504;2024-01-10T10:45:05;8.56;;;8.44;;
71172;SDS011;58875;51.996;4.504;2024-01-10T10:47:34;8.18;;;8.11;;
71172;SDS011;58875;51.996;4.504;2024-01-10T10:50:02;8.79;;;8.66;;
71172;SDS011;58875;51.996;4.504;2024-01-10T10:52:28;8.47;;;8.30;;
71172;SDS011;58875;51.996;4.504;2024-01-10T10:54:55;8.73;;;8.55;;
71172;SDS011;58875;51.996;4.504;2024-01-10T10:57:22;9.15;;;8.95;;
71172;SDS011;58875;51.996;4.504;2024-01-10T10:59:50;8.85;;;8.77;;
71172;SDS011;58875;51.996;4.504;2024-01-10T11:02:20;8.81;;;8.73;;
71172;SDS011;58875;51.996;4.504;2024-01-10T11:04:47;8.93;;;8.86;;
71172;SDS011;58875;51.996;4.504;2024-01-10T11:07:12;9.51;;;9.37;;
71172;SDS011;58875;51.996;4.504;2024-01-10T11:09:38;9.06;;;8.91;;
71172;SDS011;58875;51.996;4.504;2024-01-10T11:25:15;9.34;;;9.17;;
71172;SDS011;58875;51.996;4.504;2024-01-10T11:27:40;9.82;;;9.53;;
71172;SDS011;58875;51.996;4.504;2024-01-10T11:30:08;9.61;;;9.37;;
71172;SDS011;58875;51.996;4.504;2024-01-10T11:32:35;9.33;;;9.09;;
71172;SDS011;58875;51.996;4.504;2024-01-10T11:35:05;9.12;;;9.02;;
71172;SDS011;58875;51.996;4.504;2024-01-10T11:37:42;8.98;;;8.85;;
71172;SDS011;58875;51.996;4.504;2024-01-10T11:40:08;9.47;;;9.34;;
71172;SDS011;58875;51.996;4.504;2024-01-10T11:42:41;9.51;;;9.40;;
71172;SDS011;58875;51.996;4.504;2024-01-10T11:45:07;9.24;;;9.15;;
71172;SDS011;58875;51.996;4.504;2024-01-10T11:47:33;9.11;;;9.03;;
71172;SDS011;58875;51.996;4.504;2024-01-10T11:49:59;9.17;;;9.11;;
71172;SDS011;58875;51.996;4.504;2024-01-10T11:52:33;9.46;;;9.42;;
71172;SDS011;58875;51.996;4.504;2024-01-10T11:54:59;9.07;;;8.97;;
71172;SDS011;58875;51.996;4.504;2024-01-10T11:57:25;9.51;;;9.39;;
71172;SDS011;58875;51.996;4.504;2024-01-10T11:59:58;9.48;;;9.38;;
71172;SDS011;58875;51.996;4.504;2024-01-10T12:02:25;9.82;;;9.73;;
71172;SDS011;58875;51.996;4.504;2024-01-10T12:04:52;9.19;;;9.09;;
71172;SDS011;58875;51.996;4.504;2024-01-10T12:07:18;9.28;;;9.23;;
71172;SDS011;58875;51.996;4.504;2024-01-10T12:09:44;9.49;;;9.34;;
71172;SDS011;58875;51.996;4.504;2024-01-10T12:12:10;9.32;;;9.27;;
71172;SDS011;58875;51.996;4.504;2024-01-10T12:14:37;9.89;;;9.78;;
71172;SDS011;58875;51.996;4.504;2024-01-10T12:17:02;9.91;;;9.82;;
71172;SDS011;58875;51.996;4.504;2024-01-10T12:19:31;10.09;;;9.96;;
71172;SDS011;58875;51.996;4.504;2024-01-10T12:21:56;11.47;;;11.11;;
71172;SDS011;58875;51.996;4.504;2024-01-10T12:24:22;10.61;;;10.33;;
71172;SDS011;58875;51.996;4.504;2024-01-10T12:26:48;10.89;;;10.62;;
71172;SDS011;58875;51.996;4.504;2024-01-10T12:29:17;10.90;;;10.63;;
71172;SDS011;58875;51.996;4.504;2024-01-10T12:31:45;10.10;;;9.97;;
71172;SDS011;58875;51.996;4.504;2024-01-10T12:34:11;9.99;;;9.89;;
71172;SDS011;58875;51.996;4.504;2024-01-10T12:36:36;9.60;;;9.53;;
71172;SDS011;58875;51.996;4.504;2024-01-10T12:39:01;9.28;;;9.23;;
71172;SDS011;58875;51.996;4.504;2024-01-10T12:41:27;10.01;;;9.87;;
71172;SDS011;58875;51.996;4.504;2024-01-10T12:43:55;9.71;;;9.62;;
71172;SDS011;58875;51.996;4.504;2024-01-10T12:46:21;9.37;;;9.35;;
71172;SDS011;58875;51.996;4.504;2024-01-10T12:49:02;9.68;;;9.59;;
71172;SDS011;58875;51.996;4.504;2024-01-10T12:51:28;9.59;;;9.51;;
71172;SDS011;58875;51.996;4.504;2024-01-10T12:53:55;9.20;;;9.13;;
71172;SDS011;58875;51.996;4.504;2024-01-10T12:56:24;9.40;;;9.31;;
71172;SDS011;58875;51.996;4.504;2024-01-10T12:58:53;9.70;;;9.55;;
71172;SDS011;58875;51.996;4.504;2024-01-10T13:01:20;9.85;;;9.72;;
71172;SDS011;58875;51.996;4.504;2024-01-10T13:03:46;9.04;;;8.98;;
71172;SDS011;58875;51.996;4.504;2024-01-10T13:06:13;9.12;;;9.10;;
71172;SDS011;58875;51.996;4.504;2024-01-10T13:08:39;10.00;;;9.85;;
71172;SDS011;58875;51.996;4.504;2024-01-10T13:11:04;10.68;;;10.48;;
71172;SDS011;58875;51.996;4.504;2024-01-10T13:13:34;10.95;;;10.61;;
71172;SDS011;58875;51.996;4.504;2024-01-10T13:16:00;10.38;;;10.19;;
71172;SDS011;58875;51.996;4.504;2024-01-10T13:18:25;10.21;;;9.96;;
71172;SDS011;58875;51.996;4.504;2024-01-10T13:20:53;9.93;;;9.76;;
71172;SDS011;58875;51.996;4.504;2024-01-10T13:23:19;9.98;;;9.89;;
71172;SDS011;58875;51.996;4.504;2024-01-10T13:25:47;9.91;;;9.81;;
71172;SDS011;58875;51.996;4.504;2024-01-10T13:28:13;9.31;;;9.25;;
71172;SDS011;58875;51.996;4.504;2024-01-10T13:30:39;9.44;;;9.40;;
71172;SDS011;58875;51.996;4.504;2024-01-10T13:33:06;9.98;;;9.87;;
71172;SDS011;58875;51.996;4.504;2024-01-10T13:35:32;9.56;;;9.38;;
71172;SDS011;58875;51.996;4.504;2024-01-10T13:37:58;9.65;;;9.41;;
71172;SDS011;58875;51.996;4.504;2024-01-10T13:40:24;9.58;;;9.43;;
71172;SDS011;58875;51.996;4.504;2024-01-10T13:42:52;9.83;;;9.69;;
71172;SDS011;58875;51.996;4.504;2024-01-10T13:45:18;9.32;;;9.27;;
71172;SDS011;58875;51.996;4.504;2024-01-10T13:47:44;9.60;;;9.55;;
71172;SDS011;58875;51.996;4.504;2024-01-10T13:50:09;9.31;;;9.24;;
71172;SDS011;58875;51.996;4.504;2024-01-10T13:52:35;9.48;;;9.44;;
71172;SDS011;58875;51.996;4.504;2024-01-10T13:55:01;9.63;;;9.59;;
71172;SDS011;58875;51.996;4.504;2024-01-10T13:57:27;9.82;;;9.73;;
71172;SDS011;58875;51.996;4.504;2024-01-10T13:59:52;9.87;;;9.81;;
71172;SDS011;58875;51.996;4.504;2024-01-10T14:02:24;10.12;;;10.08;;
71172;SDS011;58875;51.996;4.504;2024-01-10T14:04:50;9.98;;;9.90;;
71172;SDS011;58875;51.996;4.504;2024-01-10T14:07:16;9.86;;;9.76;;
71172;SDS011;58875;51.996;4.504;2024-01-10T14:09:42;10.11;;;10.07;;
71172;SDS011;58875;51.996;4.504;2024-01-10T14:12:08;9.90;;;9.88;;
71172;SDS011;58875;51.996;4.504;2024-01-10T14:14:33;10.30;;;10.16;;
71172;SDS011;58875;51.996;4.504;2024-01-10T14:16:59;10.27;;;10.20;;
71172;SDS011;58875;51.996;4.504;2024-01-10T14:19:24;10.56;;;10.37;;
71172;SDS011;58875;51.996;4.504;2024-01-10T14:21:49;10.89;;;10.69;;
71172;SDS011;58875;51.996;4.504;2024-01-10T14:24:15;10.42;;;10.26;;
71172;SDS011;58875;51.996;4.504;2024-01-10T14:26:41;10.58;;;10.49;;
71172;SDS011;58875;51.996;4.504;2024-01-10T14:29:06;10.35;;;10.29;;
71172;SDS011;58875;51.996;4.504;2024-01-10T14:31:31;10.95;;;10.80;;
71172;SDS011;58875;51.996;4.504;2024-01-10T14:33:57;10.64;;;10.55;;
71172;SDS011;58875;51.996;4.504;2024-01-10T14:36:23;10.86;;;10.73;;
71172;SDS011;58875;51.996;4.504;2024-01-10T14:38:48;10.29;;;10.23;;
71172;SDS011;58875;51.996;4.504;2024-01-10T14:41:13;10.18;;;10.11;;
71172;SDS011;58875;51.996;4.504;2024-01-10T14:43:39;10.71;;;10.65;;
71172;SDS011;58875;51.996;4.504;2024-01-10T14:46:04;10.50;;;10.44;;
71172;SDS011;58875;51.996;4.504;2024-01-10T14:48:33;10.83;;;10.74;;
71172;SDS011;58875;51.996;4.504;2024-01-10T14:50:59;11.18;;;11.15;;
71172;SDS011;58875;51.996;4.504;2024-01-10T14:53:29;11.63;;;11.52;;